Angola, LA

3:55 PM CDT on July 07, 2015 (GMT -0500)
Lake View Cottage | | Change Station
CLOSE
Current Station
Personal Weather Station
Location: Ventress, LA
Elevation: 10 ft
Nearby Weather Stations
Active Advisory: Flood Warning

Elev 10 ft 30.65 °N, 91.48 °W | Updated 1 second ago

Mostly Cloudy
Mostly Cloudy
91.4 °F
Feels Like 108 °F
N
2.9
Wind Variable Wind from SW
Gusts 9.0 mph

Today
High -- | Low -- °F
--% Chance of Precip.
Yesterday
High -- | Low -- °F
Precip. -- in
6:08 AM 8:13 PM
Waning Gibbous, 61% visible
Pressure 30.06 in
Visibility 10.0 miles
Clouds Few 5000 ft
Few 8000 ft
Scattered Clouds 10000 ft
Heat Index 108 °F
Dew Point 79 °F
Humidity 67%
Rainfall 0.00 in
Snow Depth Not available.
UV 7 out of 12
Pollen 3.60 out of 12
Air Quality Not available.
Flu Activity Not available.
METAR KBTR 072053Z 18010KT 10SM FEW050 FEW080 SCT100 33/23 A3007 RMK AO2 SLP179 60000 T03280233 58013

More Conditions Fewer Conditions

Pressure 30.06 in
Visibility 10.0 miles
Clouds Few 5000 ft
Few 8000 ft
Scattered Clouds 10000 ft
Heat Index 108 °F
Dew Point 79 °F
Humidity 67%
Rainfall 0.00 in
Snow Depth Not available.
UV 7 out of 12
Pollen 3.60 out of 12
Air Quality Not available.
Flu Activity Not available.
METAR KBTR 072053Z 18010KT 10SM FEW050 FEW080 SCT100 33/23 A3007 RMK AO2 SLP179 60000 T03280233 58013

More Conditions Fewer Conditions

10-Day Weather Forecast

×

Almanac

Astronomy

Jul. 07, 2015 Rise Set
Actual Time
Civil Twilight
Nautical Twilight
Astronomical Twilight
Moon
Length of Visible Light
Length of Day
Tomorrow will be .
, % of the Moon is Illuminated

Today's Extremes

State Highs State Lows

Community

WunderPhotos

Upload Photos

1,835,890 photos uploaded!

WunderBlogs® & News

Nearby

Air Quality

  Air Quality AQ Index Pollutant
Not available.

Snow Depth

Station Depth Elevation

Earthquake Activity

City Distance Mag. Time & Date
Minimum magnitude displayed is 2.5.

Coastal Water Temperatures

Place Temperature

Stations

Nearby Weather Stations

Station Location Temp. Windchill Dew Point Humidity Wind Precip. Elev Updated Type
                   
Flood Warning
Statement as of 1:54 PM CDT on July 07, 2015

... Forecast flooding increased from minor to moderate severity...
the Flood Warning continues for
the Mississippi River at Red River Landing.
* Until further notice.
* At 1:00 PM Tuesday the stage was 53.6 feet.
* Minor flooding is occurring and moderate flooding is forecast.
* Flood stage is 48.0 feet.
* Forecast... the river will continue rising to near 55.5 feet by
Saturday July 18.
* Impact... at 54.0 feet... all river islands along The Reach from Red
River Landing to Baton Rouge are inundated. Recreational camps
and river bottom land are under water. Water approaches Angola
farm land.


Lat... Lon 3103 9153 3102 9170 3071 9159 3074 9137


Lat... Lon 3103 9153 3102 9170 3071 9159 3074 9137